createdAt,value
2023-04-27T00:02:56.019Z,10.10
2023-04-27T00:06:34.406Z,6.50
2023-04-27T00:10:27.904Z,8.60
2023-04-27T00:13:52.739Z,10.50
2023-04-27T00:17:30.141Z,14.60
2023-04-27T00:21:27.035Z,10.80
2023-04-27T00:25:12.822Z,11.00
2023-04-27T00:28:40.620Z,14.80
2023-04-27T00:32:16.579Z,11.50
2023-04-27T00:35:52.600Z,15.30
2023-04-27T00:39:49.630Z,10.30
2023-04-27T00:43:17.805Z,12.80
2023-04-27T00:47:13.600Z,9.20
2023-04-27T00:50:38.828Z,15.20
2023-04-27T00:54:36.901Z,11.20
2023-04-27T00:58:07.480Z,21.00
2023-04-27T01:02:01.161Z,8.40
2023-04-27T01:05:34.663Z,11.20
2023-04-27T01:09:06.990Z,10.40
2023-04-27T01:13:03.294Z,12.30
2023-04-27T01:16:49.653Z,13.30
2023-04-27T01:20:35.625Z,10.90
2023-04-27T01:24:20.576Z,13.20
2023-04-27T01:28:04.131Z,11.10
2023-04-27T01:31:28.655Z,13.00
2023-04-27T01:35:27.578Z,11.10
2023-04-27T01:39:11.524Z,10.30
2023-04-27T01:42:58.049Z,10.30
2023-04-27T01:46:41.143Z,11.60
2023-04-27T01:50:24.553Z,10.00
2023-04-27T01:53:49.175Z,7.90
2023-04-27T01:57:48.988Z,12.70
2023-04-27T02:01:15.053Z,8.50
2023-04-27T02:04:52.964Z,11.30
2023-04-27T02:08:49.331Z,10.40
2023-04-27T02:12:13.573Z,11.10
2023-04-27T02:15:51.026Z,8.90
2023-04-27T02:19:28.804Z,10.10
2023-04-27T02:23:06.923Z,9.10
2023-04-27T02:27:04.643Z,8.80
2023-04-27T02:30:50.439Z,18.40
2023-04-27T02:34:35.769Z,9.80
2023-04-27T02:38:02.459Z,10.80
2023-04-27T02:41:40.350Z,13.30
2023-04-27T02:45:37.705Z,9.00
2023-04-27T02:49:03.727Z,12.70
2023-04-27T02:52:43.928Z,8.20
2023-04-27T02:56:18.840Z,11.00
2023-04-27T02:59:56.584Z,9.60
2023-04-27T03:03:34.553Z,9.20
2023-04-27T03:07:12.954Z,16.00
2023-04-27T03:10:49.737Z,22.10
2023-04-27T03:14:46.118Z,20.20
2023-04-27T03:18:11.348Z,12.90
2023-04-27T03:22:09.274Z,17.40
2023-04-27T03:25:52.748Z,15.20
2023-04-27T03:29:17.524Z,15.90
2023-04-27T03:32:56.454Z,15.40
2023-04-27T03:36:32.491Z,23.80
2023-04-27T03:40:11.196Z,19.00
2023-04-27T03:44:06.702Z,18.80
2023-04-27T03:47:50.535Z,13.30
2023-04-27T03:51:35.317Z,22.90
2023-04-27T03:55:19.188Z,18.50
2023-04-27T03:59:04.084Z,18.00
2023-04-27T04:02:32.189Z,16.60
2023-04-27T04:06:10.794Z,16.40
2023-04-27T04:10:05.674Z,18.10
2023-04-27T04:13:31.755Z,16.50
2023-04-27T04:17:30.434Z,15.60
2023-04-27T04:20:56.364Z,17.30
2023-04-27T04:24:52.884Z,19.60
2023-04-27T04:28:36.558Z,18.90
2023-04-27T04:32:03.665Z,17.30
2023-04-27T04:36:00.465Z,18.30
2023-04-27T04:39:48.664Z,15.20
2023-04-27T04:43:33.689Z,20.00
2023-04-27T04:47:19.787Z,18.20
2023-04-27T04:51:06.420Z,19.80
2023-04-27T04:54:31.271Z,19.50
2023-04-27T04:58:08.414Z,21.10
2023-04-27T05:01:46.670Z,26.20
2023-04-27T05:05:42.683Z,30.30
2023-04-27T05:09:25.672Z,26.40
2023-04-27T05:12:49.869Z,33.50
2023-04-27T05:16:48.509Z,24.80
2023-04-27T05:20:35.210Z,30.40
2023-04-27T05:24:18.420Z,30.80
2023-04-27T05:27:42.789Z,26.70
2023-04-27T05:31:39.331Z,34.50
2023-04-27T05:35:06.084Z,19.30
2023-04-27T05:38:41.660Z,19.40
2023-04-27T05:42:20.176Z,20.60
2023-04-27T05:45:56.690Z,33.80
2023-04-27T05:49:36.758Z,16.40
2023-04-27T05:53:32.569Z,24.50
2023-04-27T05:56:56.782Z,11.00
2023-04-27T06:00:34.480Z,18.10
2023-04-27T06:04:12.069Z,18.60
2023-04-27T06:08:08.584Z,15.30
2023-04-27T06:11:51.970Z,16.10
2023-04-27T06:15:35.875Z,14.10
2023-04-27T06:19:00.571Z,12.40
2023-04-27T06:22:39.984Z,14.80
2023-04-27T06:26:34.734Z,14.30
2023-04-27T06:29:59.536Z,13.30
2023-04-27T06:33:36.674Z,8.60
2023-04-27T06:37:17.105Z,9.40
2023-04-27T06:41:12.970Z,9.50
2023-04-27T06:44:58.239Z,9.70
2023-04-27T06:48:22.770Z,8.70
2023-04-27T06:52:21.664Z,8.50
2023-04-27T06:56:10.958Z,5.50
2023-04-27T06:59:35.751Z,6.70
2023-04-27T07:03:36.137Z,8.50
2023-04-27T07:07:22.651Z,10.50
2023-04-27T07:10:47.044Z,5.80
2023-04-27T07:14:25.172Z,10.20
2023-04-27T07:18:02.307Z,7.20
2023-04-27T07:21:42.271Z,5.40
2023-04-27T07:25:39.596Z,5.50
2023-04-27T07:29:14.568Z,4.20
2023-04-27T07:32:54.469Z,6.70
2023-04-27T07:36:46.126Z,6.20
2023-04-27T07:40:31.916Z,5.80
2023-04-27T07:44:17.665Z,7.40
2023-04-27T07:48:03.830Z,6.00
2023-04-27T07:51:46.967Z,7.10
2023-04-27T07:55:30.435Z,7.00
2023-04-27T07:58:57.381Z,9.30
2023-04-27T08:02:54.330Z,5.80
2023-04-27T08:06:22.622Z,8.90
2023-04-27T08:10:01.447Z,7.40
2023-04-27T08:13:35.131Z,6.70
2023-04-27T08:17:12.502Z,5.40
2023-04-27T08:20:50.080Z,6.70
2023-04-27T08:24:46.488Z,5.80
2023-04-27T08:28:29.454Z,5.20
2023-04-27T08:32:15.330Z,7.30
2023-04-27T08:35:42.959Z,10.70
2023-04-27T08:39:40.220Z,5.70
2023-04-27T08:43:26.853Z,6.70
2023-04-27T08:47:10.877Z,6.70
2023-04-27T08:51:02.033Z,4.40
2023-04-27T08:54:27.274Z,8.70
2023-04-27T08:58:36.310Z,3.80
2023-04-27T09:02:20.747Z,5.10
2023-04-27T09:06:08.337Z,4.70
2023-04-27T09:09:34.673Z,6.00
2023-04-27T09:13:12.509Z,9.70
2023-04-27T09:17:08.912Z,6.50
2023-04-27T09:20:52.933Z,5.40
2023-04-27T09:24:18.032Z,7.30
2023-04-27T09:27:58.464Z,5.60
2023-04-27T09:31:34.476Z,13.50
2023-04-27T09:35:32.823Z,3.80
2023-04-27T09:39:08.668Z,7.30
2023-04-27T09:43:02.668Z,5.50
2023-04-27T09:46:48.590Z,5.70
2023-04-27T09:50:14.155Z,4.10
2023-04-27T09:53:58.798Z,7.00
2023-04-27T09:57:39.204Z,4.80
2023-04-27T10:01:42.644Z,6.20
2023-04-27T10:05:43.355Z,4.50
2023-04-27T10:09:10.684Z,5.00
2023-04-27T10:13:06.710Z,8.30
2023-04-27T10:16:43.924Z,6.70
2023-04-27T10:20:09.918Z,2.70
2023-04-27T10:23:50.785Z,3.00
2023-04-27T10:27:50.060Z,3.70
2023-04-27T10:31:16.812Z,4.40
2023-04-27T10:35:13.791Z,3.90
2023-04-27T10:38:41.365Z,4.50
2023-04-27T10:42:36.957Z,3.70
2023-04-27T10:46:22.245Z,3.60
2023-04-27T10:50:15.209Z,1.70
2023-04-27T10:53:40.713Z,4.00
2023-04-27T10:57:19.292Z,4.10
2023-04-27T11:00:55.954Z,6.70
2023-04-27T11:04:52.791Z,4.70
2023-04-27T11:08:44.097Z,5.30
2023-04-27T11:12:15.460Z,6.30
2023-04-27T11:16:09.482Z,6.20
2023-04-27T11:19:44.892Z,2.00
2023-04-27T11:23:12.182Z,5.10
2023-04-27T11:26:54.150Z,9.50
2023-04-27T11:30:27.939Z,3.00
2023-04-27T11:34:07.931Z,4.70
2023-04-27T11:37:42.688Z,5.90
2023-04-27T11:41:49.461Z,5.00
2023-04-27T11:45:15.249Z,4.20
2023-04-27T11:49:12.157Z,7.80
2023-04-27T11:53:00.154Z,4.50
2023-04-27T11:56:24.434Z,4.60
2023-04-27T12:00:21.159Z,3.50
2023-04-27T12:04:04.524Z,4.40
2023-04-27T12:07:28.902Z,4.90
2023-04-27T12:11:06.769Z,5.60
2023-04-27T12:14:46.086Z,5.40
2023-04-27T12:18:22.122Z,8.80
2023-04-27T12:21:59.619Z,4.00
2023-04-27T12:25:37.652Z,4.90
2023-04-27T12:29:15.428Z,5.60
2023-04-27T12:33:11.622Z,4.20
2023-04-27T12:36:56.344Z,4.20
2023-04-27T12:40:23.247Z,3.50
2023-04-27T12:43:57.912Z,4.20
2023-04-27T12:51:36.510Z,4.80
2023-04-27T12:55:32.142Z,3.10
2023-04-27T12:59:17.063Z,4.50
2023-04-27T13:02:43.561Z,4.30
2023-04-27T13:06:40.667Z,2.90
2023-04-27T13:10:08.298Z,7.30
2023-04-27T13:14:04.973Z,2.80
2023-04-27T13:17:52.357Z,5.00
2023-04-27T13:21:35.124Z,5.60
2023-04-27T13:24:59.334Z,4.30
2023-04-27T13:28:57.376Z,5.20
2023-04-27T13:32:22.817Z,2.30
2023-04-27T13:36:18.168Z,8.00
2023-04-27T13:39:45.733Z,3.40
2023-04-27T13:43:43.052Z,6.40
2023-04-27T13:47:31.291Z,4.20
2023-04-27T13:50:56.159Z,3.60
2023-04-27T13:54:52.823Z,1.20
2023-04-27T13:58:36.628Z,4.30
2023-04-27T14:02:24.960Z,6.70
2023-04-27T14:06:09.025Z,3.90
2023-04-27T14:09:34.811Z,1.30
2023-04-27T14:13:31.445Z,2.70
2023-04-27T14:17:15.226Z,3.70
2023-04-27T14:20:45.543Z,5.60
2023-04-27T14:24:17.183Z,4.10
2023-04-27T14:28:14.227Z,1.50
2023-04-27T14:32:00.112Z,4.70
2023-04-27T14:35:28.458Z,5.50
2023-04-27T14:39:06.820Z,3.90
2023-04-27T14:42:42.730Z,3.70
2023-04-27T14:46:22.136Z,3.20
2023-04-27T14:50:18.578Z,2.90
2023-04-27T14:54:06.516Z,4.30
2023-04-27T14:57:52.000Z,4.70
2023-04-27T15:01:36.792Z,3.70
2023-04-27T15:05:20.830Z,4.10
2023-04-27T15:09:09.582Z,1.50
2023-04-27T15:12:34.417Z,3.50
2023-04-27T15:16:16.557Z,2.30
2023-04-27T15:19:51.672Z,4.40
2023-04-27T15:23:45.969Z,2.20
2023-04-27T15:27:10.209Z,4.20
2023-04-27T15:31:13.685Z,4.20
2023-04-27T15:34:45.917Z,1.50
2023-04-27T15:38:34.274Z,6.10
2023-04-27T15:42:17.348Z,5.00
2023-04-27T15:46:04.836Z,4.40
2023-04-27T15:49:30.544Z,5.80
2023-04-27T15:53:08.256Z,4.30
2023-04-27T15:56:45.129Z,6.00
2023-04-27T16:00:41.393Z,6.10
2023-04-27T16:04:06.706Z,4.70
2023-04-27T16:08:02.326Z,2.60
2023-04-27T16:11:45.828Z,5.10
2023-04-27T16:15:29.047Z,9.00
2023-04-27T16:18:53.853Z,6.20
2023-04-27T16:22:31.840Z,3.80
2023-04-27T16:26:29.032Z,3.10
2023-04-27T16:30:15.550Z,4.70
2023-04-27T16:46:58.901Z,4.30
2023-04-27T16:50:55.860Z,4.80
2023-04-27T16:54:42.996Z,3.60
2023-04-27T16:58:07.672Z,3.90
2023-04-27T17:01:45.984Z,4.50
2023-04-27T17:05:41.871Z,5.80
2023-04-27T17:09:24.909Z,4.40
2023-04-27T17:13:10.299Z,7.30
2023-04-27T17:16:36.538Z,9.80
2023-04-27T17:20:13.908Z,9.60
2023-04-27T17:24:10.652Z,10.60
2023-04-27T17:27:40.010Z,7.80
2023-04-27T17:31:14.480Z,12.70
2023-04-27T17:35:09.834Z,13.50
2023-04-27T17:38:53.360Z,8.90
2023-04-27T17:42:37.489Z,8.70
2023-04-27T17:46:20.930Z,10.40
2023-04-27T17:50:04.903Z,8.30
2023-04-27T17:53:29.060Z,8.00
2023-04-27T17:57:25.491Z,6.80
2023-04-27T18:00:50.094Z,10.40
2023-04-27T18:04:46.248Z,11.70
2023-04-27T18:08:11.960Z,14.30
2023-04-27T18:12:10.166Z,14.90
2023-04-27T18:15:34.535Z,28.70
2023-04-27T18:19:31.710Z,43.00
2023-04-27T18:22:56.764Z,43.30
2023-04-27T18:26:52.585Z,34.40
2023-04-27T18:30:35.923Z,13.80
2023-04-27T18:34:21.152Z,13.60
2023-04-27T18:38:05.189Z,15.90
2023-04-27T18:41:29.804Z,15.30
2023-04-27T18:45:26.435Z,11.50
2023-04-27T18:49:10.900Z,12.20
2023-04-27T18:52:35.006Z,9.60
2023-04-27T18:56:32.180Z,7.90
2023-04-27T19:00:16.324Z,7.50
2023-04-27T19:03:40.623Z,10.10
2023-04-27T19:07:38.497Z,6.60
2023-04-27T19:11:03.624Z,6.40
2023-04-27T19:14:43.469Z,8.80
2023-04-27T19:18:19.285Z,9.80
2023-04-27T19:21:58.393Z,8.20
2023-04-27T19:25:34.418Z,11.30
2023-04-27T19:29:31.140Z,12.30
2023-04-27T19:33:15.923Z,7.50
2023-04-27T19:36:40.698Z,9.40
2023-04-27T19:40:18.411Z,10.80
2023-04-27T19:44:15.002Z,11.10
2023-04-27T19:47:59.986Z,8.30
2023-04-27T19:51:46.555Z,11.10
2023-04-27T19:55:13.789Z,9.40
2023-04-27T19:58:50.747Z,9.70
2023-04-27T20:02:52.712Z,8.20
2023-04-27T20:06:19.977Z,9.60
2023-04-27T20:10:17.307Z,14.30
2023-04-27T20:13:41.672Z,11.90
2023-04-27T20:17:20.292Z,14.20
2023-04-27T20:21:00.479Z,19.40
2023-04-27T20:24:35.508Z,23.10
2023-04-27T20:28:12.289Z,30.20
2023-04-27T20:32:13.674Z,23.60
2023-04-27T20:36:03.602Z,30.70
2023-04-27T20:39:35.832Z,25.70
2023-04-27T20:43:14.774Z,27.40
2023-04-27T20:46:50.145Z,37.90
2023-04-27T20:50:48.182Z,36.90
2023-04-27T20:54:33.688Z,36.60
2023-04-27T20:58:20.207Z,31.10
2023-04-27T21:01:47.236Z,27.70
2023-04-27T21:05:22.130Z,31.60
2023-04-27T21:09:18.960Z,38.40
2023-04-27T21:13:04.565Z,35.60
2023-04-27T21:16:48.872Z,32.60
2023-04-27T21:20:32.714Z,41.90
2023-04-27T21:24:06.680Z,31.00
2023-04-27T21:27:34.327Z,32.70
2023-04-27T21:31:14.557Z,34.70
2023-04-27T21:34:49.793Z,38.00
2023-04-27T21:38:27.395Z,46.60
2023-04-27T21:42:05.103Z,42.50
2023-04-27T21:46:01.656Z,42.70
2023-04-27T21:49:26.291Z,31.00
2023-04-27T21:53:22.408Z,40.20
2023-04-27T21:57:05.296Z,40.00
2023-04-27T22:00:29.403Z,38.30
2023-04-27T22:04:07.366Z,39.90
2023-04-27T22:07:45.922Z,46.00
2023-04-27T22:11:41.348Z,41.30
2023-04-27T22:15:24.851Z,53.00
2023-04-27T22:19:08.593Z,52.10
2023-04-27T22:22:51.918Z,53.20
2023-04-27T22:26:35.440Z,54.00
2023-04-27T22:30:18.320Z,52.00
2023-04-27T22:34:02.961Z,50.70
2023-04-27T22:37:29.626Z,52.70
2023-04-27T22:41:05.529Z,53.60
2023-04-27T22:45:02.183Z,59.10
2023-04-27T22:48:45.595Z,66.10
2023-04-27T22:52:32.934Z,53.70
2023-04-27T22:56:16.596Z,52.70
2023-04-27T22:59:41.119Z,53.00
2023-04-27T23:03:37.893Z,47.00
2023-04-27T23:07:02.365Z,39.90
2023-04-27T23:10:39.950Z,40.20
2023-04-27T23:14:36.757Z,52.20
2023-04-27T23:18:20.603Z,46.10
2023-04-27T23:21:44.827Z,47.00
2023-04-27T23:25:22.661Z,52.20
2023-04-27T23:29:00.282Z,48.80
2023-04-27T23:32:37.755Z,46.70
2023-04-27T23:36:34.419Z,45.70
2023-04-27T23:40:17.881Z,43.20
2023-04-27T23:43:43.192Z,50.30
2023-04-27T23:47:38.982Z,44.00
2023-04-27T23:51:04.804Z,44.50
2023-04-27T23:55:00.413Z,45.00
2023-04-27T23:58:44.121Z,43.60
